sensor_id;sensor_type;location;lat;lon;timestamp;P1;durP1;ratioP1;P2;durP2;ratioP2
11691;SDS011;33659;42.672;23.354;2023-04-03T00:00:20;10.70;;;5.97;;
11691;SDS011;33659;42.672;23.354;2023-04-03T00:02:47;11.52;;;5.97;;
11691;SDS011;33659;42.672;23.354;2023-04-03T00:05:14;9.10;;;4.80;;
11691;SDS011;33659;42.672;23.354;2023-04-03T00:07:42;8.38;;;5.22;;
11691;SDS011;33659;42.672;23.354;2023-04-03T00:10:09;12.38;;;6.15;;
11691;SDS011;33659;42.672;23.354;2023-04-03T00:12:36;10.35;;;5.28;;
11691;SDS011;33659;42.672;23.354;2023-04-03T00:15:03;7.35;;;5.38;;
11691;SDS011;33659;42.672;23.354;2023-04-03T00:17:30;9.98;;;5.50;;
11691;SDS011;33659;42.672;23.354;2023-04-03T00:19:57;8.10;;;4.82;;
11691;SDS011;33659;42.672;23.354;2023-04-03T00:22:23;7.15;;;4.93;;
11691;SDS011;33659;42.672;23.354;2023-04-03T00:24:52;6.55;;;4.10;;
11691;SDS011;33659;42.672;23.354;2023-04-03T00:27:19;6.82;;;3.95;;
11691;SDS011;33659;42.672;23.354;2023-04-03T00:29:46;7.45;;;3.90;;
11691;SDS011;33659;42.672;23.354;2023-04-03T00:32:13;11.48;;;4.38;;
11691;SDS011;33659;42.672;23.354;2023-04-03T00:34:40;6.45;;;3.83;;
11691;SDS011;33659;42.672;23.354;2023-04-03T00:37:07;6.70;;;4.40;;
11691;SDS011;33659;42.672;23.354;2023-04-03T00:39:33;4.95;;;3.40;;
11691;SDS011;33659;42.672;23.354;2023-04-03T00:42:02;4.10;;;3.60;;
11691;SDS011;33659;42.672;23.354;2023-04-03T00:47:31;6.00;;;4.13;;
11691;SDS011;33659;42.672;23.354;2023-04-03T00:49:58;7.70;;;3.80;;
11691;SDS011;33659;42.672;23.354;2023-04-03T00:52:26;3.35;;;2.70;;
11691;SDS011;33659;42.672;23.354;2023-04-03T00:54:57;4.10;;;2.70;;
11691;SDS011;33659;42.672;23.354;2023-04-03T00:57:29;5.67;;;3.83;;
11691;SDS011;33659;42.672;23.354;2023-04-03T00:59:59;3.63;;;3.03;;
11691;SDS011;33659;42.672;23.354;2023-04-03T01:02:31;4.20;;;3.05;;
11691;SDS011;33659;42.672;23.354;2023-04-03T01:04:58;4.68;;;2.97;;
11691;SDS011;33659;42.672;23.354;2023-04-03T01:07:26;3.30;;;2.75;;
11691;SDS011;33659;42.672;23.354;2023-04-03T01:09:56;5.18;;;3.20;;
11691;SDS011;33659;42.672;23.354;2023-04-03T01:12:24;3.35;;;2.97;;
11691;SDS011;33659;42.672;23.354;2023-04-03T01:14:55;5.55;;;3.50;;
11691;SDS011;33659;42.672;23.354;2023-04-03T01:17:27;4.28;;;3.47;;
11691;SDS011;33659;42.672;23.354;2023-04-03T01:20:01;7.25;;;3.80;;
11691;SDS011;33659;42.672;23.354;2023-04-03T01:22:46;6.75;;;3.83;;
11691;SDS011;33659;42.672;23.354;2023-04-03T01:25:18;6.20;;;3.40;;
11691;SDS011;33659;42.672;23.354;2023-04-03T01:27:45;5.65;;;2.97;;
11691;SDS011;33659;42.672;23.354;2023-04-03T01:30:14;4.07;;;2.90;;
11691;SDS011;33659;42.672;23.354;2023-04-03T01:32:48;3.55;;;2.70;;
11691;SDS011;33659;42.672;23.354;2023-04-03T01:35:15;6.63;;;3.20;;
11691;SDS011;33659;42.672;23.354;2023-04-03T01:37:42;5.75;;;3.47;;
11691;SDS011;33659;42.672;23.354;2023-04-03T01:40:09;5.57;;;3.90;;
11691;SDS011;33659;42.672;23.354;2023-04-03T01:42:36;6.65;;;4.20;;
11691;SDS011;33659;42.672;23.354;2023-04-03T01:45:03;11.68;;;4.22;;
11691;SDS011;33659;42.672;23.354;2023-04-03T01:47:31;7.53;;;5.13;;
11691;SDS011;33659;42.672;23.354;2023-04-03T01:49:59;9.13;;;4.53;;
11691;SDS011;33659;42.672;23.354;2023-04-03T01:52:26;8.40;;;4.65;;
11691;SDS011;33659;42.672;23.354;2023-04-03T01:54:53;5.97;;;5.03;;
11691;SDS011;33659;42.672;23.354;2023-04-03T01:57:20;7.20;;;4.22;;
11691;SDS011;33659;42.672;23.354;2023-04-03T01:59:46;10.93;;;4.90;;
11691;SDS011;33659;42.672;23.354;2023-04-03T02:02:13;11.10;;;4.47;;
11691;SDS011;33659;42.672;23.354;2023-04-03T02:04:40;6.90;;;4.15;;
11691;SDS011;33659;42.672;23.354;2023-04-03T02:07:08;7.50;;;4.47;;
11691;SDS011;33659;42.672;23.354;2023-04-03T02:09:35;7.60;;;4.68;;
11691;SDS011;33659;42.672;23.354;2023-04-03T02:12:01;7.53;;;3.90;;
11691;SDS011;33659;42.672;23.354;2023-04-03T02:14:28;9.67;;;5.40;;
11691;SDS011;33659;42.672;23.354;2023-04-03T02:16:55;10.20;;;5.63;;
11691;SDS011;33659;42.672;23.354;2023-04-03T02:19:22;13.27;;;6.55;;
11691;SDS011;33659;42.672;23.354;2023-04-03T02:21:49;13.88;;;6.85;;
11691;SDS011;33659;42.672;23.354;2023-04-03T02:24:17;12.77;;;6.57;;
11691;SDS011;33659;42.672;23.354;2023-04-03T02:26:43;11.90;;;7.00;;
11691;SDS011;33659;42.672;23.354;2023-04-03T02:29:10;15.40;;;6.80;;
11691;SDS011;33659;42.672;23.354;2023-04-03T02:31:37;14.68;;;7.57;;
11691;SDS011;33659;42.672;23.354;2023-04-03T02:34:03;11.77;;;6.82;;
11691;SDS011;33659;42.672;23.354;2023-04-03T02:36:30;11.38;;;5.45;;
11691;SDS011;33659;42.672;23.354;2023-04-03T02:38:57;10.40;;;5.97;;
11691;SDS011;33659;42.672;23.354;2023-04-03T02:41:25;9.27;;;6.32;;
11691;SDS011;33659;42.672;23.354;2023-04-03T02:43:58;9.52;;;6.57;;
11691;SDS011;33659;42.672;23.354;2023-04-03T02:46:25;9.97;;;6.40;;
11691;SDS011;33659;42.672;23.354;2023-04-03T02:48:52;10.50;;;5.97;;
11691;SDS011;33659;42.672;23.354;2023-04-03T02:51:19;9.50;;;4.97;;
11691;SDS011;33659;42.672;23.354;2023-04-03T02:53:45;6.60;;;5.13;;
11691;SDS011;33659;42.672;23.354;2023-04-03T02:56:12;7.93;;;5.13;;
11691;SDS011;33659;42.672;23.354;2023-04-03T02:58:40;8.37;;;4.83;;
11691;SDS011;33659;42.672;23.354;2023-04-03T03:01:07;8.97;;;4.37;;
11691;SDS011;33659;42.672;23.354;2023-04-03T03:03:33;9.07;;;4.40;;
11691;SDS011;33659;42.672;23.354;2023-04-03T03:06:01;8.07;;;5.00;;
11691;SDS011;33659;42.672;23.354;2023-04-03T03:08:28;6.53;;;4.30;;
11691;SDS011;33659;42.672;23.354;2023-04-03T03:10:55;10.40;;;4.20;;
11691;SDS011;33659;42.672;23.354;2023-04-03T03:13:22;7.70;;;4.70;;
11691;SDS011;33659;42.672;23.354;2023-04-03T03:15:50;7.53;;;4.53;;
11691;SDS011;33659;42.672;23.354;2023-04-03T03:18:17;8.17;;;4.67;;
11691;SDS011;33659;42.672;23.354;2023-04-03T03:20:44;6.70;;;4.25;;
11691;SDS011;33659;42.672;23.354;2023-04-03T03:23:11;7.33;;;4.87;;
11691;SDS011;33659;42.672;23.354;2023-04-03T03:25:38;5.43;;;4.25;;
11691;SDS011;33659;42.672;23.354;2023-04-03T03:28:05;8.00;;;5.63;;
11691;SDS011;33659;42.672;23.354;2023-04-03T03:30:32;8.37;;;4.47;;
11691;SDS011;33659;42.672;23.354;2023-04-03T03:33:00;7.23;;;4.87;;
11691;SDS011;33659;42.672;23.354;2023-04-03T03:35:27;6.10;;;4.23;;
11691;SDS011;33659;42.672;23.354;2023-04-03T03:37:54;8.35;;;4.28;;
11691;SDS011;33659;42.672;23.354;2023-04-03T03:40:20;10.52;;;4.65;;
11691;SDS011;33659;42.672;23.354;2023-04-03T03:42:47;10.80;;;4.70;;
11691;SDS011;33659;42.672;23.354;2023-04-03T03:45:14;13.67;;;6.10;;
11691;SDS011;33659;42.672;23.354;2023-04-03T03:47:41;21.63;;;8.93;;
11691;SDS011;33659;42.672;23.354;2023-04-03T03:50:10;17.88;;;7.35;;
11691;SDS011;33659;42.672;23.354;2023-04-03T03:52:37;15.35;;;7.18;;
11691;SDS011;33659;42.672;23.354;2023-04-03T03:55:04;16.95;;;6.35;;
11691;SDS011;33659;42.672;23.354;2023-04-03T03:57:31;13.85;;;5.43;;
11691;SDS011;33659;42.672;23.354;2023-04-03T03:59:57;8.23;;;4.70;;
11691;SDS011;33659;42.672;23.354;2023-04-03T04:02:24;12.93;;;5.10;;
11691;SDS011;33659;42.672;23.354;2023-04-03T04:04:51;13.77;;;4.90;;
11691;SDS011;33659;42.672;23.354;2023-04-03T04:07:19;12.70;;;4.10;;
11691;SDS011;33659;42.672;23.354;2023-04-03T04:09:46;9.70;;;4.20;;
11691;SDS011;33659;42.672;23.354;2023-04-03T04:12:13;7.87;;;4.83;;
11691;SDS011;33659;42.672;23.354;2023-04-03T04:14:40;9.90;;;5.43;;
11691;SDS011;33659;42.672;23.354;2023-04-03T04:17:07;16.47;;;5.80;;
11691;SDS011;33659;42.672;23.354;2023-04-03T04:19:34;11.05;;;4.50;;
11691;SDS011;33659;42.672;23.354;2023-04-03T04:22:01;12.73;;;5.73;;
11691;SDS011;33659;42.672;23.354;2023-04-03T04:24:29;9.77;;;6.23;;
11691;SDS011;33659;42.672;23.354;2023-04-03T04:26:56;11.30;;;5.20;;
11691;SDS011;33659;42.672;23.354;2023-04-03T04:29:23;8.93;;;5.27;;
11691;SDS011;33659;42.672;23.354;2023-04-03T04:31:50;8.43;;;5.20;;
11691;SDS011;33659;42.672;23.354;2023-04-03T04:34:16;11.20;;;5.53;;
11691;SDS011;33659;42.672;23.354;2023-04-03T04:36:43;8.63;;;4.97;;
11691;SDS011;33659;42.672;23.354;2023-04-03T04:39:10;13.53;;;5.70;;
11691;SDS011;33659;42.672;23.354;2023-04-03T04:41:38;11.00;;;5.23;;
11691;SDS011;33659;42.672;23.354;2023-04-03T04:44:05;10.43;;;5.10;;
11691;SDS011;33659;42.672;23.354;2023-04-03T04:46:31;20.45;;;5.85;;
11691;SDS011;33659;42.672;23.354;2023-04-03T04:49:00;12.47;;;5.67;;
11691;SDS011;33659;42.672;23.354;2023-04-03T04:51:27;13.17;;;6.40;;
11691;SDS011;33659;42.672;23.354;2023-04-03T04:53:53;11.20;;;4.70;;
11691;SDS011;33659;42.672;23.354;2023-04-03T04:56:20;13.07;;;5.70;;
11691;SDS011;33659;42.672;23.354;2023-04-03T04:58:48;10.20;;;5.57;;
11691;SDS011;33659;42.672;23.354;2023-04-03T05:01:15;7.97;;;4.43;;
11691;SDS011;33659;42.672;23.354;2023-04-03T05:03:42;7.90;;;4.27;;
11691;SDS011;33659;42.672;23.354;2023-04-03T05:06:08;15.20;;;4.35;;
11691;SDS011;33659;42.672;23.354;2023-04-03T05:08:35;13.43;;;4.77;;
11691;SDS011;33659;42.672;23.354;2023-04-03T05:11:02;10.00;;;4.90;;
11691;SDS011;33659;42.672;23.354;2023-04-03T05:13:29;8.07;;;4.77;;
11691;SDS011;33659;42.672;23.354;2023-04-03T05:15:57;12.20;;;6.43;;
11691;SDS011;33659;42.672;23.354;2023-04-03T05:18:24;8.53;;;4.87;;
11691;SDS011;33659;42.672;23.354;2023-04-03T05:20:51;10.47;;;5.70;;
11691;SDS011;33659;42.672;23.354;2023-04-03T05:23:17;14.88;;;5.78;;
11691;SDS011;33659;42.672;23.354;2023-04-03T05:25:45;9.50;;;4.90;;
11691;SDS011;33659;42.672;23.354;2023-04-03T05:28:13;10.02;;;4.45;;
11691;SDS011;33659;42.672;23.354;2023-04-03T05:30:40;12.90;;;6.07;;
11691;SDS011;33659;42.672;23.354;2023-04-03T05:33:09;11.17;;;5.47;;
11691;SDS011;33659;42.672;23.354;2023-04-03T05:35:36;7.70;;;5.30;;
11691;SDS011;33659;42.672;23.354;2023-04-03T05:38:06;7.93;;;5.10;;
11691;SDS011;33659;42.672;23.354;2023-04-03T05:40:33;12.37;;;5.63;;
11691;SDS011;33659;42.672;23.354;2023-04-03T05:42:59;11.27;;;6.05;;
11691;SDS011;33659;42.672;23.354;2023-04-03T05:45:26;8.77;;;5.00;;
11691;SDS011;33659;42.672;23.354;2023-04-03T05:47:53;10.95;;;5.72;;
11691;SDS011;33659;42.672;23.354;2023-04-03T05:50:24;6.47;;;4.93;;
11691;SDS011;33659;42.672;23.354;2023-04-03T05:52:52;9.45;;;5.63;;
11691;SDS011;33659;42.672;23.354;2023-04-03T05:55:23;12.32;;;5.35;;
11691;SDS011;33659;42.672;23.354;2023-04-03T05:57:50;12.75;;;5.35;;
11691;SDS011;33659;42.672;23.354;2023-04-03T06:00:17;12.23;;;6.40;;
11691;SDS011;33659;42.672;23.354;2023-04-03T06:02:44;15.73;;;6.22;;
11691;SDS011;33659;42.672;23.354;2023-04-03T06:05:11;11.73;;;6.57;;
11691;SDS011;33659;42.672;23.354;2023-04-03T06:07:39;15.98;;;7.40;;
11691;SDS011;33659;42.672;23.354;2023-04-03T06:10:07;18.13;;;7.47;;
11691;SDS011;33659;42.672;23.354;2023-04-03T06:12:34;12.70;;;7.50;;
11691;SDS011;33659;42.672;23.354;2023-04-03T06:15:01;18.55;;;7.72;;
11691;SDS011;33659;42.672;23.354;2023-04-03T06:17:28;11.88;;;7.45;;
11691;SDS011;33659;42.672;23.354;2023-04-03T06:19:56;19.60;;;7.25;;
11691;SDS011;33659;42.672;23.354;2023-04-03T06:22:23;20.80;;;7.75;;
11691;SDS011;33659;42.672;23.354;2023-04-03T06:24:52;14.60;;;7.55;;
11691;SDS011;33659;42.672;23.354;2023-04-03T06:27:19;17.00;;;8.05;;
11691;SDS011;33659;42.672;23.354;2023-04-03T06:29:46;13.45;;;7.40;;
11691;SDS011;33659;42.672;23.354;2023-04-03T06:32:13;13.65;;;7.60;;
11691;SDS011;33659;42.672;23.354;2023-04-03T06:34:41;13.68;;;7.57;;
11691;SDS011;33659;42.672;23.354;2023-04-03T06:37:10;11.75;;;7.00;;
11691;SDS011;33659;42.672;23.354;2023-04-03T06:39:37;17.77;;;7.55;;
11691;SDS011;33659;42.672;23.354;2023-04-03T06:42:05;14.32;;;6.60;;
11691;SDS011;33659;42.672;23.354;2023-04-03T06:44:32;11.30;;;7.05;;
11691;SDS011;33659;42.672;23.354;2023-04-03T06:47:00;15.70;;;6.80;;
11691;SDS011;33659;42.672;23.354;2023-04-03T06:49:27;18.43;;;8.47;;
11691;SDS011;33659;42.672;23.354;2023-04-03T06:51:54;17.75;;;9.82;;
11691;SDS011;33659;42.672;23.354;2023-04-03T06:54:20;20.58;;;10.68;;
11691;SDS011;33659;42.672;23.354;2023-04-03T06:56:47;16.75;;;10.63;;
11691;SDS011;33659;42.672;23.354;2023-04-03T06:59:16;19.40;;;10.27;;
11691;SDS011;33659;42.672;23.354;2023-04-03T07:01:43;19.38;;;10.75;;
11691;SDS011;33659;42.672;23.354;2023-04-03T07:04:09;23.83;;;10.93;;
11691;SDS011;33659;42.672;23.354;2023-04-03T07:06:36;18.80;;;9.23;;
11691;SDS011;33659;42.672;23.354;2023-04-03T07:09:03;18.60;;;9.73;;
11691;SDS011;33659;42.672;23.354;2023-04-03T07:11:30;17.85;;;8.68;;
11691;SDS011;33659;42.672;23.354;2023-04-03T07:13:56;17.92;;;8.10;;
11691;SDS011;33659;42.672;23.354;2023-04-03T07:16:24;14.38;;;8.27;;
11691;SDS011;33659;42.672;23.354;2023-04-03T07:18:51;14.07;;;8.23;;
11691;SDS011;33659;42.672;23.354;2023-04-03T07:21:18;12.07;;;7.82;;
11691;SDS011;33659;42.672;23.354;2023-04-03T07:23:45;11.15;;;6.78;;
11691;SDS011;33659;42.672;23.354;2023-04-03T07:26:11;12.13;;;6.53;;
11691;SDS011;33659;42.672;23.354;2023-04-03T07:28:38;12.63;;;7.25;;
11691;SDS011;33659;42.672;23.354;2023-04-03T07:31:06;11.80;;;7.13;;
11691;SDS011;33659;42.672;23.354;2023-04-03T07:33:39;13.90;;;6.68;;
11691;SDS011;33659;42.672;23.354;2023-04-03T07:36:07;16.17;;;7.68;;
11691;SDS011;33659;42.672;23.354;2023-04-03T07:38:36;15.88;;;7.20;;
11691;SDS011;33659;42.672;23.354;2023-04-03T07:41:03;11.55;;;6.68;;
11691;SDS011;33659;42.672;23.354;2023-04-03T07:43:30;11.80;;;7.35;;
11691;SDS011;33659;42.672;23.354;2023-04-03T07:45:57;14.63;;;7.70;;
11691;SDS011;33659;42.672;23.354;2023-04-03T07:48:25;19.20;;;7.78;;
11691;SDS011;33659;42.672;23.354;2023-04-03T07:50:53;17.60;;;9.90;;
11691;SDS011;33659;42.672;23.354;2023-04-03T07:53:25;9.75;;;6.85;;
11691;SDS011;33659;42.672;23.354;2023-04-03T07:55:52;17.75;;;9.02;;
11691;SDS011;33659;42.672;23.354;2023-04-03T07:58:21;15.73;;;10.73;;
11691;SDS011;33659;42.672;23.354;2023-04-03T08:00:47;17.10;;;10.98;;
11691;SDS011;33659;42.672;23.354;2023-04-03T08:03:16;17.83;;;10.93;;
11691;SDS011;33659;42.672;23.354;2023-04-03T08:05:44;20.98;;;10.57;;
11691;SDS011;33659;42.672;23.354;2023-04-03T08:08:15;21.38;;;10.60;;
11691;SDS011;33659;42.672;23.354;2023-04-03T08:10:43;16.05;;;10.30;;
11691;SDS011;33659;42.672;23.354;2023-04-03T08:13:14;17.90;;;10.00;;
11691;SDS011;33659;42.672;23.354;2023-04-03T08:15:41;13.48;;;10.23;;
11691;SDS011;33659;42.672;23.354;2023-04-03T08:18:08;18.73;;;9.40;;
11691;SDS011;33659;42.672;23.354;2023-04-03T08:20:35;18.10;;;10.15;;
11691;SDS011;33659;42.672;23.354;2023-04-03T08:23:03;27.17;;;11.93;;
11691;SDS011;33659;42.672;23.354;2023-04-03T08:25:31;19.38;;;10.75;;
11691;SDS011;33659;42.672;23.354;2023-04-03T08:27:58;20.33;;;10.30;;
11691;SDS011;33659;42.672;23.354;2023-04-03T08:30:27;19.67;;;10.52;;
11691;SDS011;33659;42.672;23.354;2023-04-03T08:32:53;18.70;;;9.80;;
11691;SDS011;33659;42.672;23.354;2023-04-03T08:35:20;16.00;;;10.82;;
11691;SDS011;33659;42.672;23.354;2023-04-03T08:37:47;22.67;;;11.23;;
11691;SDS011;33659;42.672;23.354;2023-04-03T08:40:14;18.52;;;10.98;;
11691;SDS011;33659;42.672;23.354;2023-04-03T08:42:47;18.05;;;11.18;;
11691;SDS011;33659;42.672;23.354;2023-04-03T08:45:21;15.88;;;10.77;;
11691;SDS011;33659;42.672;23.354;2023-04-03T08:47:58;15.50;;;9.98;;
11691;SDS011;33659;42.672;23.354;2023-04-03T08:50:30;18.35;;;11.20;;
11691;SDS011;33659;42.672;23.354;2023-04-03T08:52:59;20.08;;;10.82;;
11691;SDS011;33659;42.672;23.354;2023-04-03T08:55:31;13.00;;;9.57;;
11691;SDS011;33659;42.672;23.354;2023-04-03T08:58:02;14.32;;;8.52;;
11691;SDS011;33659;42.672;23.354;2023-04-03T09:00:34;18.63;;;10.20;;
11691;SDS011;33659;42.672;23.354;2023-04-03T09:03:11;14.07;;;8.35;;
11691;SDS011;33659;42.672;23.354;2023-04-03T09:05:39;16.30;;;9.35;;
11691;SDS011;33659;42.672;23.354;2023-04-03T09:08:18;17.52;;;9.40;;
11691;SDS011;33659;42.672;23.354;2023-04-03T09:10:49;16.25;;;9.45;;
11691;SDS011;33659;42.672;23.354;2023-04-03T09:13:22;17.48;;;9.07;;
11691;SDS011;33659;42.672;23.354;2023-04-03T09:15:52;20.08;;;8.60;;
11691;SDS011;33659;42.672;23.354;2023-04-03T09:18:20;14.38;;;8.68;;
11691;SDS011;33659;42.672;23.354;2023-04-03T09:20:52;15.13;;;8.80;;
11691;SDS011;33659;42.672;23.354;2023-04-03T09:23:24;18.15;;;8.43;;
11691;SDS011;33659;42.672;23.354;2023-04-03T09:25:58;20.00;;;9.07;;
11691;SDS011;33659;42.672;23.354;2023-04-03T09:28:31;11.88;;;8.55;;
11691;SDS011;33659;42.672;23.354;2023-04-03T09:31:18;16.63;;;8.77;;
11691;SDS011;33659;42.672;23.354;2023-04-03T09:33:47;13.52;;;8.43;;
11691;SDS011;33659;42.672;23.354;2023-04-03T09:39:05;10.27;;;7.40;;
11691;SDS011;33659;42.672;23.354;2023-04-03T09:41:35;19.27;;;8.85;;
11691;SDS011;33659;42.672;23.354;2023-04-03T09:44:04;17.38;;;8.63;;
11691;SDS011;33659;42.672;23.354;2023-04-03T09:46:46;10.55;;;7.15;;
11691;SDS011;33659;42.672;23.354;2023-04-03T09:49:13;10.70;;;7.30;;
11691;SDS011;33659;42.672;23.354;2023-04-03T09:51:40;15.13;;;8.38;;
11691;SDS011;33659;42.672;23.354;2023-04-03T09:57:07;18.70;;;8.43;;
11691;SDS011;33659;42.672;23.354;2023-04-03T09:59:38;15.15;;;7.30;;
11691;SDS011;33659;42.672;23.354;2023-04-03T10:08:06;8.65;;;6.93;;
11691;SDS011;33659;42.672;23.354;2023-04-03T10:10:35;12.35;;;7.13;;
11691;SDS011;33659;42.672;23.354;2023-04-03T10:13:06;10.05;;;6.45;;
11691;SDS011;33659;42.672;23.354;2023-04-03T10:15:41;11.50;;;5.63;;
11691;SDS011;33659;42.672;23.354;2023-04-03T10:18:17;11.75;;;5.00;;
11691;SDS011;33659;42.672;23.354;2023-04-03T10:20:56;9.27;;;5.40;;
11691;SDS011;33659;42.672;23.354;2023-04-03T10:23:29;12.30;;;5.22;;
11691;SDS011;33659;42.672;23.354;2023-04-03T10:26:06;11.77;;;5.05;;
11691;SDS011;33659;42.672;23.354;2023-04-03T10:28:43;10.68;;;4.85;;
11691;SDS011;33659;42.672;23.354;2023-04-03T10:31:17;6.80;;;4.47;;
11691;SDS011;33659;42.672;23.354;2023-04-03T10:33:52;9.13;;;5.25;;
11691;SDS011;33659;42.672;23.354;2023-04-03T10:36:28;8.90;;;4.22;;
11691;SDS011;33659;42.672;23.354;2023-04-03T10:39:06;6.78;;;3.97;;
11691;SDS011;33659;42.672;23.354;2023-04-03T10:41:46;5.63;;;3.50;;
11691;SDS011;33659;42.672;23.354;2023-04-03T10:44:23;8.50;;;3.55;;
11691;SDS011;33659;42.672;23.354;2023-04-03T10:47:02;3.22;;;2.92;;
11691;SDS011;33659;42.672;23.354;2023-04-03T10:49:38;5.40;;;3.83;;
11691;SDS011;33659;42.672;23.354;2023-04-03T10:52:17;7.70;;;3.55;;
11691;SDS011;33659;42.672;23.354;2023-04-03T10:54:49;5.28;;;3.67;;
11691;SDS011;33659;42.672;23.354;2023-04-03T10:57:23;6.85;;;3.30;;
11691;SDS011;33659;42.672;23.354;2023-04-03T10:59:51;6.00;;;2.97;;
11691;SDS011;33659;42.672;23.354;2023-04-03T11:02:24;4.88;;;3.33;;
11691;SDS011;33659;42.672;23.354;2023-04-03T11:04:53;4.00;;;3.03;;
11691;SDS011;33659;42.672;23.354;2023-04-03T11:07:26;5.00;;;2.70;;
11691;SDS011;33659;42.672;23.354;2023-04-03T11:09:57;6.70;;;2.97;;
11691;SDS011;33659;42.672;23.354;2023-04-03T11:12:32;3.58;;;2.47;;
11691;SDS011;33659;42.672;23.354;2023-04-03T11:15:04;3.00;;;2.03;;
11691;SDS011;33659;42.672;23.354;2023-04-03T11:17:39;2.40;;;2.20;;
11691;SDS011;33659;42.672;23.354;2023-04-03T11:20:14;2.40;;;2.20;;
11691;SDS011;33659;42.672;23.354;2023-04-03T11:22:45;2.60;;;2.40;;
11691;SDS011;33659;42.672;23.354;2023-04-03T11:25:18;2.13;;;1.95;;
11691;SDS011;33659;42.672;23.354;2023-04-03T11:27:48;4.30;;;2.40;;
11691;SDS011;33659;42.672;23.354;2023-04-03T11:30:18;2.37;;;2.17;;
11691;SDS011;33659;42.672;23.354;2023-04-03T11:33:12;4.23;;;2.50;;
11691;SDS011;33659;42.672;23.354;2023-04-03T11:35:48;3.60;;;2.47;;
11691;SDS011;33659;42.672;23.354;2023-04-03T11:38:19;3.03;;;2.28;;
11691;SDS011;33659;42.672;23.354;2023-04-03T11:40:51;3.17;;;2.53;;
11691;SDS011;33659;42.672;23.354;2023-04-03T11:43:23;3.10;;;2.20;;
11691;SDS011;33659;42.672;23.354;2023-04-03T11:45:55;3.28;;;2.55;;
11691;SDS011;33659;42.672;23.354;2023-04-03T11:51:40;2.33;;;2.13;;
11691;SDS011;33659;42.672;23.354;2023-04-03T12:12:42;2.42;;;2.30;;
11691;SDS011;33659;42.672;23.354;2023-04-03T12:15:26;2.72;;;2.28;;
11691;SDS011;33659;42.672;23.354;2023-04-03T12:21:15;3.30;;;2.20;;
11691;SDS011;33659;42.672;23.354;2023-04-03T12:23:58;2.22;;;2.03;;
11691;SDS011;33659;42.672;23.354;2023-04-03T12:26:28;3.17;;;1.95;;
11691;SDS011;33659;42.672;23.354;2023-04-03T12:28:58;2.88;;;2.15;;
11691;SDS011;33659;42.672;23.354;2023-04-03T12:31:32;2.78;;;2.15;;
11691;SDS011;33659;42.672;23.354;2023-04-03T12:34:20;2.47;;;2.15;;
11691;SDS011;33659;42.672;23.354;2023-04-03T12:36:59;4.53;;;2.40;;
11691;SDS011;33659;42.672;23.354;2023-04-03T12:39:36;3.28;;;2.30;;
11691;SDS011;33659;42.672;23.354;2023-04-03T12:42:16;3.08;;;2.53;;
11691;SDS011;33659;42.672;23.354;2023-04-03T12:44:53;3.08;;;2.72;;
11691;SDS011;33659;42.672;23.354;2023-04-03T12:47:27;4.13;;;2.70;;
11691;SDS011;33659;42.672;23.354;2023-04-03T12:49:57;6.68;;;2.85;;
11691;SDS011;33659;42.672;23.354;2023-04-03T12:52:34;2.70;;;2.50;;
11691;SDS011;33659;42.672;23.354;2023-04-03T12:55:12;3.25;;;2.90;;
11691;SDS011;33659;42.672;23.354;2023-04-03T12:57:41;7.20;;;4.22;;
11691;SDS011;33659;42.672;23.354;2023-04-03T13:00:22;4.10;;;3.03;;
11691;SDS011;33659;42.672;23.354;2023-04-03T13:02:57;5.47;;;3.20;;
11691;SDS011;33659;42.672;23.354;2023-04-03T13:05:25;3.80;;;3.17;;
11691;SDS011;33659;42.672;23.354;2023-04-03T13:07:52;4.05;;;3.03;;
11691;SDS011;33659;42.672;23.354;2023-04-03T13:10:25;5.25;;;3.17;;
11691;SDS011;33659;42.672;23.354;2023-04-03T13:12:52;6.72;;;3.55;;
11691;SDS011;33659;42.672;23.354;2023-04-03T13:15:21;4.93;;;3.88;;
11691;SDS011;33659;42.672;23.354;2023-04-03T13:17:49;3.90;;;3.50;;
11691;SDS011;33659;42.672;23.354;2023-04-03T13:20:20;5.15;;;3.40;;
11691;SDS011;33659;42.672;23.354;2023-04-03T13:22:53;3.80;;;3.50;;
11691;SDS011;33659;42.672;23.354;2023-04-03T13:25:25;4.43;;;3.67;;
11691;SDS011;33659;42.672;23.354;2023-04-03T13:27:56;4.90;;;3.80;;
11691;SDS011;33659;42.672;23.354;2023-04-03T13:30:26;8.27;;;3.92;;
11691;SDS011;33659;42.672;23.354;2023-04-03T13:32:55;6.95;;;4.43;;
11691;SDS011;33659;42.672;23.354;2023-04-03T13:35:25;3.97;;;3.67;;
11691;SDS011;33659;42.672;23.354;2023-04-03T13:37:54;4.75;;;3.88;;
11691;SDS011;33659;42.672;23.354;2023-04-03T13:40:21;5.90;;;3.75;;
11691;SDS011;33659;42.672;23.354;2023-04-03T13:42:59;5.33;;;4.10;;
11691;SDS011;33659;42.672;23.354;2023-04-03T13:45:32;4.05;;;3.28;;
11691;SDS011;33659;42.672;23.354;2023-04-03T13:48:14;4.72;;;4.20;;
11691;SDS011;33659;42.672;23.354;2023-04-03T13:50:51;5.13;;;3.42;;
11691;SDS011;33659;42.672;23.354;2023-04-03T13:53:20;4.22;;;3.53;;
11691;SDS011;33659;42.672;23.354;2023-04-03T13:55:58;3.42;;;3.13;;
11691;SDS011;33659;42.672;23.354;2023-04-03T13:58:33;10.23;;;3.72;;
11691;SDS011;33659;42.672;23.354;2023-04-03T14:01:06;5.13;;;3.28;;
11691;SDS011;33659;42.672;23.354;2023-04-03T14:03:55;4.05;;;3.30;;
11691;SDS011;33659;42.672;23.354;2023-04-03T14:06:23;3.53;;;3.22;;
11691;SDS011;33659;42.672;23.354;2023-04-03T14:08:50;3.85;;;2.75;;
11691;SDS011;33659;42.672;23.354;2023-04-03T14:11:18;3.95;;;3.47;;
11691;SDS011;33659;42.672;23.354;2023-04-03T14:13:50;3.47;;;3.17;;
11691;SDS011;33659;42.672;23.354;2023-04-03T14:16:18;3.63;;;3.30;;
11691;SDS011;33659;42.672;23.354;2023-04-03T14:18:46;5.82;;;3.53;;
11691;SDS011;33659;42.672;23.354;2023-04-03T14:21:16;3.85;;;3.30;;
11691;SDS011;33659;42.672;23.354;2023-04-03T14:23:44;3.38;;;3.08;;
11691;SDS011;33659;42.672;23.354;2023-04-03T14:26:12;2.92;;;2.60;;
11691;SDS011;33659;42.672;23.354;2023-04-03T14:28:41;4.50;;;3.40;;
11691;SDS011;33659;42.672;23.354;2023-04-03T14:31:10;3.22;;;2.88;;
11691;SDS011;33659;42.672;23.354;2023-04-03T14:33:38;2.60;;;2.40;;
11691;SDS011;33659;42.672;23.354;2023-04-03T14:36:10;2.90;;;2.60;;
11691;SDS011;33659;42.672;23.354;2023-04-03T14:38:39;3.17;;;2.80;;
11691;SDS011;33659;42.672;23.354;2023-04-03T14:41:06;4.47;;;3.08;;
11691;SDS011;33659;42.672;23.354;2023-04-03T14:43:33;4.40;;;3.40;;
11691;SDS011;33659;42.672;23.354;2023-04-03T14:46:00;4.53;;;3.33;;
11691;SDS011;33659;42.672;23.354;2023-04-03T14:48:28;4.67;;;2.97;;
11691;SDS011;33659;42.672;23.354;2023-04-03T14:50:56;5.33;;;3.83;;
11691;SDS011;33659;42.672;23.354;2023-04-03T14:53:23;6.00;;;3.23;;
11691;SDS011;33659;42.672;23.354;2023-04-03T14:55:51;2.93;;;2.27;;
11691;SDS011;33659;42.672;23.354;2023-04-03T14:58:19;3.17;;;2.60;;
11691;SDS011;33659;42.672;23.354;2023-04-03T15:00:46;2.70;;;2.17;;
11691;SDS011;33659;42.672;23.354;2023-04-03T15:03:14;2.53;;;2.33;;
11691;SDS011;33659;42.672;23.354;2023-04-03T15:05:44;4.40;;;2.43;;
11691;SDS011;33659;42.672;23.354;2023-04-03T15:08:17;3.37;;;2.40;;
11691;SDS011;33659;42.672;23.354;2023-04-03T15:10:46;4.03;;;2.47;;
11691;SDS011;33659;42.672;23.354;2023-04-03T15:13:13;3.30;;;2.67;;
11691;SDS011;33659;42.672;23.354;2023-04-03T15:15:41;2.70;;;2.40;;
11691;SDS011;33659;42.672;23.354;2023-04-03T15:18:09;2.70;;;2.50;;
11691;SDS011;33659;42.672;23.354;2023-04-03T15:20:40;4.13;;;2.70;;